sensor_id;sensor_type;location;lat;lon;timestamp;pressure;altitude;pressure_sealevel;temperature;humidity
49835;BME280;35729;52.090;13.162;2023-05-27T00:01:34;102229.13;;;10.64;61.90
49835;BME280;35729;52.090;13.162;2023-05-27T00:04:03;102221.25;;;10.58;62.16
49835;BME280;35729;52.090;13.162;2023-05-27T00:06:31;102223.00;;;10.53;62.26
49835;BME280;35729;52.090;13.162;2023-05-27T00:09:00;102228.22;;;10.48;62.49
49835;BME280;35729;52.090;13.162;2023-05-27T00:11:29;102231.72;;;10.44;62.75
49835;BME280;35729;52.090;13.162;2023-05-27T00:13:58;102232.56;;;10.38;62.98
49835;BME280;35729;52.090;13.162;2023-05-27T00:16:27;102235.16;;;10.34;63.27
49835;BME280;35729;52.090;13.162;2023-05-27T00:18:59;102235.09;;;10.26;63.55
49835;BME280;35729;52.090;13.162;2023-05-27T00:21:28;102232.50;;;10.21;63.68
49835;BME280;35729;52.090;13.162;2023-05-27T00:23:56;102236.84;;;10.16;64.03
49835;BME280;35729;52.090;13.162;2023-05-27T00:26:25;102235.06;;;10.10;64.02
49835;BME280;35729;52.090;13.162;2023-05-27T00:28:54;102235.91;;;10.06;64.13
49835;BME280;35729;52.090;13.162;2023-05-27T00:31:22;102241.13;;;10.03;64.45
49835;BME280;35729;52.090;13.162;2023-05-27T00:33:51;102241.13;;;10.02;64.72
49835;BME280;35729;52.090;13.162;2023-05-27T00:36:22;102237.63;;;9.98;64.86
49835;BME280;35729;52.090;13.162;2023-05-27T00:38:51;102239.38;;;9.96;64.85
49835;BME280;35729;52.090;13.162;2023-05-27T00:41:19;102240.25;;;9.93;65.11
49835;BME280;35729;52.090;13.162;2023-05-27T00:43:48;102240.22;;;9.90;65.29
49835;BME280;35729;52.090;13.162;2023-05-27T00:46:18;102239.31;;;9.87;65.18
49835;BME280;35729;52.090;13.162;2023-05-27T00:48:47;102236.69;;;9.82;65.76
49835;BME280;35729;52.090;13.162;2023-05-27T00:51:16;102247.13;;;9.81;65.53
49835;BME280;35729;52.090;13.162;2023-05-27T00:53:47;102237.50;;;9.76;65.85
49835;BME280;35729;52.090;13.162;2023-05-27T00:56:16;102241.00;;;9.75;65.83
49835;BME280;35729;52.090;13.162;2023-05-27T00:58:46;102248.84;;;9.74;65.96
49835;BME280;35729;52.090;13.162;2023-05-27T01:01:15;102248.84;;;9.74;66.04
49835;BME280;35729;52.090;13.162;2023-05-27T01:03:45;102234.00;;;9.71;66.17
49835;BME280;35729;52.090;13.162;2023-05-27T01:06:22;102235.75;;;9.71;66.12
49835;BME280;35729;52.090;13.162;2023-05-27T01:09:01;102241.00;;;9.69;66.19
49835;BME280;35729;52.090;13.162;2023-05-27T01:11:39;102244.47;;;9.68;66.23
49835;BME280;35729;52.090;13.162;2023-05-27T01:14:11;102240.09;;;9.66;66.19
49835;BME280;35729;52.090;13.162;2023-05-27T01:16:43;102240.06;;;9.62;66.35
49835;BME280;35729;52.090;13.162;2023-05-27T01:19:15;102235.66;;;9.60;66.57
49835;BME280;35729;52.090;13.162;2023-05-27T01:21:52;102235.66;;;9.57;66.58
49835;BME280;35729;52.090;13.162;2023-05-27T01:24:23;102232.13;;;9.52;66.68
49835;BME280;35729;52.090;13.162;2023-05-27T01:26:52;102232.97;;;9.48;66.75
49835;BME280;35729;52.090;13.162;2023-05-27T01:29:21;102239.97;;;9.47;66.75
49835;BME280;35729;52.090;13.162;2023-05-27T01:31:55;102231.19;;;9.45;66.95
49835;BME280;35729;52.090;13.162;2023-05-27T01:34:30;102234.72;;;9.44;66.94
49835;BME280;35729;52.090;13.162;2023-05-27T01:37:09;102222.44;;;9.40;67.08
49835;BME280;35729;52.090;13.162;2023-05-27T01:39:44;102225.06;;;9.38;67.12
49835;BME280;35729;52.090;13.162;2023-05-27T01:42:14;102232.88;;;9.34;67.26
49835;BME280;35729;52.090;13.162;2023-05-27T01:44:43;102239.81;;;9.28;67.24
49835;BME280;35729;52.090;13.162;2023-05-27T01:47:12;102228.44;;;9.25;67.29
49835;BME280;35729;52.090;13.162;2023-05-27T01:49:40;102228.44;;;9.20;67.31
49835;BME280;35729;52.090;13.162;2023-05-27T01:52:09;102238.84;;;9.16;67.37
49835;BME280;35729;52.090;13.162;2023-05-27T01:54:37;102230.94;;;9.09;67.39
49835;BME280;35729;52.090;13.162;2023-05-27T01:57:08;102225.66;;;9.03;67.49
49835;BME280;35729;52.090;13.162;2023-05-27T01:59:37;102233.50;;;8.99;67.56
49835;BME280;35729;52.090;13.162;2023-05-27T02:02:06;102224.69;;;8.92;67.32
49835;BME280;35729;52.090;13.162;2023-05-27T02:04:34;102228.13;;;8.85;67.22
49835;BME280;35729;52.090;13.162;2023-05-27T02:07:03;102229.78;;;8.78;67.21
49835;BME280;35729;52.090;13.162;2023-05-27T02:09:32;102222.72;;;8.68;66.97
49835;BME280;35729;52.090;13.162;2023-05-27T02:12:00;102220.03;;;8.61;67.04
49835;BME280;35729;52.090;13.162;2023-05-27T02:14:31;102227.81;;;8.54;67.09
49835;BME280;35729;52.090;13.162;2023-05-27T02:17:04;102221.56;;;8.44;67.07
49835;BME280;35729;52.090;13.162;2023-05-27T02:19:33;102225.00;;;8.37;66.89
49835;BME280;35729;52.090;13.162;2023-05-27T02:22:02;102224.88;;;8.29;67.20
49835;BME280;35729;52.090;13.162;2023-05-27T02:24:30;102222.19;;;8.21;67.15
49835;BME280;35729;52.090;13.162;2023-05-27T02:26:59;102224.69;;;8.12;67.47
49835;BME280;35729;52.090;13.162;2023-05-27T02:29:27;102233.31;;;8.05;67.60
49835;BME280;35729;52.090;13.162;2023-05-27T02:31:58;102223.59;;;7.94;67.85
49835;BME280;35729;52.090;13.162;2023-05-27T02:34:27;102232.19;;;7.84;67.99
49835;BME280;35729;52.090;13.162;2023-05-27T02:36:55;102235.53;;;7.75;68.55
49835;BME280;35729;52.090;13.162;2023-05-27T02:39:24;102228.44;;;7.65;68.57
49835;BME280;35729;52.090;13.162;2023-05-27T02:41:52;102240.53;;;7.58;68.69
49835;BME280;35729;52.090;13.162;2023-05-27T02:44:21;102227.34;;;7.50;69.04
49835;BME280;35729;52.090;13.162;2023-05-27T02:46:49;102226.41;;;7.45;69.40
49835;BME280;35729;52.090;13.162;2023-05-27T02:49:20;102237.66;;;7.41;69.43
49835;BME280;35729;52.090;13.162;2023-05-27T02:51:49;102232.34;;;7.37;69.36
49835;BME280;35729;52.090;13.162;2023-05-27T02:54:17;102232.31;;;7.32;69.56
49835;BME280;35729;52.090;13.162;2023-05-27T02:56:45;102236.59;;;7.27;69.65
49835;BME280;35729;52.090;13.162;2023-05-27T02:59:14;102232.13;;;7.23;69.98
49835;BME280;35729;52.090;13.162;2023-05-27T03:01:49;102236.41;;;7.17;69.91
49835;BME280;35729;52.090;13.162;2023-05-27T03:04:20;102236.38;;;7.14;70.42
49835;BME280;35729;52.090;13.162;2023-05-27T03:06:49;102241.50;;;7.10;70.42
49835;BME280;35729;52.090;13.162;2023-05-27T03:09:18;102238.88;;;7.07;70.52
49835;BME280;35729;52.090;13.162;2023-05-27T03:11:46;102237.09;;;7.04;70.73
49835;BME280;35729;52.090;13.162;2023-05-27T03:14:15;102236.16;;;7.02;70.99
49835;BME280;35729;52.090;13.162;2023-05-27T03:16:43;102235.22;;;6.97;71.12
49835;BME280;35729;52.090;13.162;2023-05-27T03:19:12;102233.47;;;6.97;71.16
49835;BME280;35729;52.090;13.162;2023-05-27T03:21:50;102229.97;;;6.95;71.83
49835;BME280;35729;52.090;13.162;2023-05-27T03:24:25;102227.34;;;6.94;71.75
49835;BME280;35729;52.090;13.162;2023-05-27T03:26:54;102227.28;;;6.92;71.69
49835;BME280;35729;52.090;13.162;2023-05-27T03:29:22;102223.81;;;6.92;71.97
49835;BME280;35729;52.090;13.162;2023-05-27T03:31:51;102228.13;;;6.91;72.29
49835;BME280;35729;52.090;13.162;2023-05-27T03:34:19;102228.13;;;6.91;72.57
49835;BME280;35729;52.090;13.162;2023-05-27T03:36:50;102229.88;;;6.91;72.61
49835;BME280;35729;52.090;13.162;2023-05-27T03:39:19;102229.88;;;6.91;73.00
49835;BME280;35729;52.090;13.162;2023-05-27T03:41:47;102231.63;;;6.90;73.13
49835;BME280;35729;52.090;13.162;2023-05-27T03:44:16;102234.22;;;6.90;73.09
49835;BME280;35729;52.090;13.162;2023-05-27T03:46:44;102235.13;;;6.92;73.43
49835;BME280;35729;52.090;13.162;2023-05-27T03:49:13;102237.72;;;6.92;73.50
49835;BME280;35729;52.090;13.162;2023-05-27T03:51:41;102236.88;;;6.93;73.67
49835;BME280;35729;52.090;13.162;2023-05-27T03:54:12;102243.88;;;6.94;73.58
49835;BME280;35729;52.090;13.162;2023-05-27T03:56:41;102245.63;;;6.95;73.70
49835;BME280;35729;52.090;13.162;2023-05-27T03:59:09;102243.03;;;6.97;74.07
49835;BME280;35729;52.090;13.162;2023-05-27T04:01:38;102252.66;;;6.99;74.09
49835;BME280;35729;52.090;13.162;2023-05-27T04:04:07;102250.97;;;7.01;74.21
49835;BME280;35729;52.090;13.162;2023-05-27T04:06:35;102250.13;;;7.04;74.33
49835;BME280;35729;52.090;13.162;2023-05-27T04:09:04;102254.53;;;7.07;74.21
49835;BME280;35729;52.090;13.162;2023-05-27T04:11:35;102250.22;;;7.10;74.54
49835;BME280;35729;52.090;13.162;2023-05-27T04:14:03;102261.56;;;7.14;74.46
49835;BME280;35729;52.090;13.162;2023-05-27T04:16:32;102255.53;;;7.16;74.63
49835;BME280;35729;52.090;13.162;2023-05-27T04:19:02;102259.97;;;7.21;74.73
49835;BME280;35729;52.090;13.162;2023-05-27T04:21:30;102257.41;;;7.25;74.76
49835;BME280;35729;52.090;13.162;2023-05-27T04:23:59;102255.75;;;7.29;74.64
49835;BME280;35729;52.090;13.162;2023-05-27T04:26:27;102254.97;;;7.33;74.97
49835;BME280;35729;52.090;13.162;2023-05-27T04:28:58;102261.13;;;7.38;74.89
49835;BME280;35729;52.090;13.162;2023-05-27T04:31:27;102263.78;;;7.43;74.88
49835;BME280;35729;52.090;13.162;2023-05-27T04:33:56;102259.50;;;7.48;74.73
49835;BME280;35729;52.090;13.162;2023-05-27T04:36:25;102254.38;;;7.53;74.92
49835;BME280;35729;52.090;13.162;2023-05-27T04:38:58;102255.31;;;7.56;74.84
49835;BME280;35729;52.090;13.162;2023-05-27T04:41:27;102253.63;;;7.61;75.09
49835;BME280;35729;52.090;13.162;2023-05-27T04:44:00;102260.66;;;7.65;75.05
49835;BME280;35729;52.090;13.162;2023-05-27T04:46:28;102259.91;;;7.73;74.90
49835;BME280;35729;52.090;13.162;2023-05-27T04:48:57;102259.91;;;7.76;75.01
49835;BME280;35729;52.090;13.162;2023-05-27T04:51:25;102261.75;;;7.81;75.06
49835;BME280;35729;52.090;13.162;2023-05-27T04:53:54;102260.09;;;7.87;75.19
49835;BME280;35729;52.090;13.162;2023-05-27T04:56:22;102265.41;;;7.93;75.57
49835;BME280;35729;52.090;13.162;2023-05-27T04:58:52;102264.59;;;7.98;75.30
49835;BME280;35729;52.090;13.162;2023-05-27T05:01:24;102263.81;;;8.06;75.57
49835;BME280;35729;52.090;13.162;2023-05-27T05:03:54;102257.81;;;8.13;75.35
49835;BME280;35729;52.090;13.162;2023-05-27T05:06:38;102263.13;;;8.19;75.58
49835;BME280;35729;52.090;13.162;2023-05-27T05:09:07;102257.16;;;8.28;75.48
49835;BME280;35729;52.090;13.162;2023-05-27T05:11:37;102264.19;;;8.35;75.47
49835;BME280;35729;52.090;13.162;2023-05-27T05:14:05;102252.94;;;8.42;75.39
49835;BME280;35729;52.090;13.162;2023-05-27T05:16:36;102258.28;;;8.50;75.50
49835;BME280;35729;52.090;13.162;2023-05-27T05:19:05;102261.88;;;8.58;75.63
49835;BME280;35729;52.090;13.162;2023-05-27T05:21:33;102261.94;;;8.64;75.21
49835;BME280;35729;52.090;13.162;2023-05-27T05:24:02;102260.28;;;8.73;74.97
49835;BME280;35729;52.090;13.162;2023-05-27T05:26:32;102251.63;;;8.78;74.78
49835;BME280;35729;52.090;13.162;2023-05-27T05:29:01;102254.31;;;8.88;74.85
49835;BME280;35729;52.090;13.162;2023-05-27T05:31:29;102256.16;;;8.96;74.76
49835;BME280;35729;52.090;13.162;2023-05-27T05:34:00;102250.09;;;9.04;74.75
49835;BME280;35729;52.090;13.162;2023-05-27T05:36:28;102251.94;;;9.12;74.54
49835;BME280;35729;52.090;13.162;2023-05-27T05:38:57;102252.00;;;9.20;74.36
49835;BME280;35729;52.090;13.162;2023-05-27T05:41:25;102251.16;;;9.27;74.34
49835;BME280;35729;52.090;13.162;2023-05-27T05:43:54;102245.09;;;9.36;74.21
49835;BME280;35729;52.090;13.162;2023-05-27T05:46:22;102244.28;;;9.43;74.21
49835;BME280;35729;52.090;13.162;2023-05-27T05:48:52;102242.63;;;9.53;73.92
49835;BME280;35729;52.090;13.162;2023-05-27T05:51:23;102244.44;;;9.62;73.91
49835;BME280;35729;52.090;13.162;2023-05-27T05:53:51;102244.47;;;9.70;73.81
49835;BME280;35729;52.090;13.162;2023-05-27T05:56:20;102248.00;;;9.78;73.60
49835;BME280;35729;52.090;13.162;2023-05-27T05:58:48;102248.94;;;9.88;73.40
49835;BME280;35729;52.090;13.162;2023-05-27T06:01:17;102256.88;;;9.97;73.31
49835;BME280;35729;52.090;13.162;2023-05-27T06:03:46;102254.28;;;10.08;73.00
49835;BME280;35729;52.090;13.162;2023-05-27T06:06:14;102253.44;;;10.15;72.89
49835;BME280;35729;52.090;13.162;2023-05-27T06:08:45;102250.84;;;10.24;72.64
49835;BME280;35729;52.090;13.162;2023-05-27T06:11:14;102247.38;;;10.35;72.35
49835;BME280;35729;52.090;13.162;2023-05-27T06:13:42;102252.69;;;10.41;72.04
49835;BME280;35729;52.090;13.162;2023-05-27T06:16:11;102251.84;;;10.48;71.84
49835;BME280;35729;52.090;13.162;2023-05-27T06:18:39;102242.25;;;10.56;71.67
49835;BME280;35729;52.090;13.162;2023-05-27T06:21:11;102244.00;;;10.64;71.44
49835;BME280;35729;52.090;13.162;2023-05-27T06:23:39;102240.50;;;10.72;71.21
49835;BME280;35729;52.090;13.162;2023-05-27T06:26:10;102246.63;;;10.79;70.94
49835;BME280;35729;52.090;13.162;2023-05-27T06:28:39;102258.91;;;10.88;70.75
49835;BME280;35729;52.090;13.162;2023-05-27T06:31:07;102268.56;;;10.95;70.54
49835;BME280;35729;52.090;13.162;2023-05-27T06:33:36;102265.94;;;11.03;70.42
49835;BME280;35729;52.090;13.162;2023-05-27T06:36:04;102273.84;;;11.12;70.19
49835;BME280;35729;52.090;13.162;2023-05-27T06:38:33;102273.81;;;11.21;69.94
49835;BME280;35729;52.090;13.162;2023-05-27T06:41:01;102269.44;;;11.30;69.72
49835;BME280;35729;52.090;13.162;2023-05-27T06:43:32;102275.56;;;11.38;69.66
49835;BME280;35729;52.090;13.162;2023-05-27T06:46:01;102279.09;;;11.46;69.26
49835;BME280;35729;52.090;13.162;2023-05-27T06:48:29;102274.69;;;11.53;69.28
49835;BME280;35729;52.090;13.162;2023-05-27T06:50:58;102273.81;;;11.62;68.88
49835;BME280;35729;52.090;13.162;2023-05-27T06:53:27;102274.66;;;11.70;68.81
49835;BME280;35729;52.090;13.162;2023-05-27T06:55:55;102266.72;;;11.78;68.48
49835;BME280;35729;52.090;13.162;2023-05-27T06:58:24;102274.63;;;11.85;68.38
49835;BME280;35729;52.090;13.162;2023-05-27T07:00:55;102268.47;;;11.93;68.08
49835;BME280;35729;52.090;13.162;2023-05-27T07:03:23;102275.47;;;12.01;67.92
49835;BME280;35729;52.090;13.162;2023-05-27T07:05:52;102272.84;;;12.11;67.77
49835;BME280;35729;52.090;13.162;2023-05-27T07:08:20;102273.66;;;12.20;67.23
49835;BME280;35729;52.090;13.162;2023-05-27T07:10:49;102265.75;;;12.30;66.98
49835;BME280;35729;52.090;13.162;2023-05-27T07:13:17;102268.31;;;12.39;66.61
49835;BME280;35729;52.090;13.162;2023-05-27T07:15:45;102270.00;;;12.49;66.25
49835;BME280;35729;52.090;13.162;2023-05-27T07:18:17;102262.06;;;12.57;65.73
49835;BME280;35729;52.090;13.162;2023-05-27T07:20:45;102269.06;;;12.63;65.68
49835;BME280;35729;52.090;13.162;2023-05-27T07:23:14;102265.50;;;12.70;65.27
49835;BME280;35729;52.090;13.162;2023-05-27T07:25:42;102255.81;;;12.77;65.24
49835;BME280;35729;52.090;13.162;2023-05-27T07:28:11;102255.75;;;12.84;64.68
49835;BME280;35729;52.090;13.162;2023-05-27T07:30:39;102257.47;;;12.90;64.33
49835;BME280;35729;52.090;13.162;2023-05-27T07:33:08;102247.78;;;12.97;64.08
49835;BME280;35729;52.090;13.162;2023-05-27T07:35:39;102249.44;;;13.04;63.79
49835;BME280;35729;52.090;13.162;2023-05-27T07:38:07;102252.91;;;13.12;63.54
49835;BME280;35729;52.090;13.162;2023-05-27T07:40:36;102245.84;;;13.20;62.86
49835;BME280;35729;52.090;13.162;2023-05-27T07:43:04;102249.22;;;13.32;62.67
49835;BME280;35729;52.090;13.162;2023-05-27T07:45:33;102241.28;;;13.41;61.80
49835;BME280;35729;52.090;13.162;2023-05-27T07:48:07;102239.44;;;13.51;61.50
49835;BME280;35729;52.090;13.162;2023-05-27T07:50:39;102235.81;;;13.60;61.09
49835;BME280;35729;52.090;13.162;2023-05-27T07:53:08;102233.06;;;13.69;60.73
49835;BME280;35729;52.090;13.162;2023-05-27T07:55:36;102228.59;;;13.79;60.39
49835;BME280;35729;52.090;13.162;2023-05-27T07:58:11;102233.75;;;13.88;59.94
49835;BME280;35729;52.090;13.162;2023-05-27T08:00:39;102223.13;;;13.94;59.82
49835;BME280;35729;52.090;13.162;2023-05-27T08:03:08;102218.59;;;14.02;59.44
49835;BME280;35729;52.090;13.162;2023-05-27T08:05:39;102221.16;;;14.10;58.91
49835;BME280;35729;52.090;13.162;2023-05-27T08:08:07;102212.22;;;14.19;58.23
49835;BME280;35729;52.090;13.162;2023-05-27T08:10:35;102208.69;;;14.23;56.24
49835;BME280;35729;52.090;13.162;2023-05-27T08:13:04;102206.88;;;14.27;55.20
49835;BME280;35729;52.090;13.162;2023-05-27T08:15:33;102197.97;;;14.32;54.83
49835;BME280;35729;52.090;13.162;2023-05-27T08:18:01;102204.91;;;14.41;54.06
49835;BME280;35729;52.090;13.162;2023-05-27T08:20:30;102199.53;;;14.47;53.08
49835;BME280;35729;52.090;13.162;2023-05-27T08:23:01;102202.06;;;14.55;51.43
49835;BME280;35729;52.090;13.162;2023-05-27T08:25:29;102194.94;;;14.60;51.17
49835;BME280;35729;52.090;13.162;2023-05-27T08:27:58;102204.56;;;14.63;50.81
49835;BME280;35729;52.090;13.162;2023-05-27T08:30:27;102196.66;;;14.66;49.60
49835;BME280;35729;52.090;13.162;2023-05-27T08:32:56;102198.31;;;14.72;50.09
49835;BME280;35729;52.090;13.162;2023-05-27T08:35:24;102189.44;;;14.76;49.40
49835;BME280;35729;52.090;13.162;2023-05-27T08:37:53;102183.22;;;14.78;49.12
49835;BME280;35729;52.090;13.162;2023-05-27T08:40:24;102186.66;;;14.83;48.34
49835;BME280;35729;52.090;13.162;2023-05-27T08:42:52;102177.81;;;14.88;48.05
49835;BME280;35729;52.090;13.162;2023-05-27T08:45:21;102173.34;;;14.91;47.10
49835;BME280;35729;52.090;13.162;2023-05-27T08:47:50;102176.78;;;14.95;46.57
49835;BME280;35729;52.090;13.162;2023-05-27T08:50:18;102170.56;;;14.99;46.32
49835;BME280;35729;52.090;13.162;2023-05-27T08:52:49;102167.03;;;15.00;46.10
49835;BME280;35729;52.090;13.162;2023-05-27T08:55:21;102166.03;;;15.06;45.95
49835;BME280;35729;52.090;13.162;2023-05-27T08:57:55;102168.59;;;15.10;45.76
49835;BME280;35729;52.090;13.162;2023-05-27T09:00:24;102157.91;;;15.17;45.03
49835;BME280;35729;52.090;13.162;2023-05-27T09:02:53;102161.28;;;15.25;45.13
49835;BME280;35729;52.090;13.162;2023-05-27T09:05:25;102158.56;;;15.29;44.74
49835;BME280;35729;52.090;13.162;2023-05-27T09:07:54;102163.72;;;15.34;44.44
49835;BME280;35729;52.090;13.162;2023-05-27T09:10:22;102153.09;;;15.39;43.93
49835;BME280;35729;52.090;13.162;2023-05-27T09:12:56;102155.56;;;15.46;43.00
49835;BME280;35729;52.090;13.162;2023-05-27T09:15:24;102156.25;;;15.56;43.12
49835;BME280;35729;52.090;13.162;2023-05-27T09:17:53;102146.41;;;15.63;42.70
49835;BME280;35729;52.090;13.162;2023-05-27T09:20:24;102139.25;;;15.68;42.00
49835;BME280;35729;52.090;13.162;2023-05-27T09:22:56;102141.78;;;15.74;42.08
49835;BME280;35729;52.090;13.162;2023-05-27T09:25:25;102145.19;;;15.83;41.87
49835;BME280;35729;52.090;13.162;2023-05-27T09:27:56;102144.16;;;15.90;40.64
49835;BME280;35729;52.090;13.162;2023-05-27T09:30:25;102146.63;;;15.96;40.22
49835;BME280;35729;52.090;13.162;2023-05-27T09:33:00;102138.59;;;16.01;39.09
49835;BME280;35729;52.090;13.162;2023-05-27T09:35:30;102135.00;;;16.03;39.70
49835;BME280;35729;52.090;13.162;2023-05-27T09:38:05;102132.22;;;16.09;39.60
49835;BME280;35729;52.090;13.162;2023-05-27T09:40:35;102133.00;;;16.15;36.73
49835;BME280;35729;52.090;13.162;2023-05-27T09:43:12;102124.97;;;16.19;37.27
49835;BME280;35729;52.090;13.162;2023-05-27T09:45:42;102128.38;;;16.24;38.45
49835;BME280;35729;52.090;13.162;2023-05-27T09:48:12;102126.34;;;16.36;38.05
49835;BME280;35729;52.090;13.162;2023-05-27T09:50:41;102134.91;;;16.47;37.91
49835;BME280;35729;52.090;13.162;2023-05-27T09:53:10;102117.00;;;16.57;37.30
49835;BME280;35729;52.090;13.162;2023-05-27T09:55:39;102117.75;;;16.62;36.79
49835;BME280;35729;52.090;13.162;2023-05-27T09:58:12;102117.69;;;16.64;36.65
49835;BME280;35729;52.090;13.162;2023-05-27T10:00:43;102114.16;;;16.65;37.16
49835;BME280;35729;52.090;13.162;2023-05-27T10:03:12;102121.09;;;16.69;36.91
49835;BME280;35729;52.090;13.162;2023-05-27T10:05:42;102103.34;;;16.72;36.78
49835;BME280;35729;52.090;13.162;2023-05-27T10:08:11;102110.31;;;16.76;36.61
49835;BME280;35729;52.090;13.162;2023-05-27T10:10:40;102115.50;;;16.81;36.73
49835;BME280;35729;52.090;13.162;2023-05-27T10:13:08;102109.19;;;16.85;36.44
49835;BME280;35729;52.090;13.162;2023-05-27T10:15:45;102100.28;;;16.88;35.08
49835;BME280;35729;52.090;13.162;2023-05-27T10:18:22;102109.94;;;16.92;35.63
49835;BME280;35729;52.090;13.162;2023-05-27T10:20:50;102101.00;;;16.96;36.11
49835;BME280;35729;52.090;13.162;2023-05-27T10:23:21;102092.84;;;17.04;36.00
49835;BME280;35729;52.090;13.162;2023-05-27T10:25:52;102100.63;;;17.10;35.62
49835;BME280;35729;52.090;13.162;2023-05-27T10:28:25;102098.66;;;17.17;34.31
49835;BME280;35729;52.090;13.162;2023-05-27T10:31:06;102093.16;;;17.24;33.60
49835;BME280;35729;52.090;13.162;2023-05-27T10:33:36;102095.63;;;17.31;34.03
49835;BME280;35729;52.090;13.162;2023-05-27T10:36:08;102090.19;;;17.35;33.79
49835;BME280;35729;52.090;13.162;2023-05-27T10:38:37;102089.19;;;17.39;34.22
49835;BME280;35729;52.090;13.162;2023-05-27T10:41:06;102095.91;;;17.51;34.84
49835;BME280;35729;52.090;13.162;2023-05-27T10:43:36;102085.00;;;17.62;34.39
49835;BME280;35729;52.090;13.162;2023-05-27T10:46:08;102084.63;;;17.74;34.07
49835;BME280;35729;52.090;13.162;2023-05-27T10:48:37;102080.84;;;17.82;33.79
49835;BME280;35729;52.090;13.162;2023-05-27T10:51:06;102082.31;;;17.92;33.81
49835;BME280;35729;52.090;13.162;2023-05-27T10:53:36;102082.91;;;18.02;33.48
49835;BME280;35729;52.090;13.162;2023-05-27T10:56:05;102080.94;;;18.09;32.35
49835;BME280;35729;52.090;13.162;2023-05-27T10:58:35;102090.44;;;18.16;32.57
49835;BME280;35729;52.090;13.162;2023-05-27T11:01:10;102072.47;;;18.24;32.02
49835;BME280;35729;52.090;13.162;2023-05-27T11:03:46;102067.72;;;18.34;32.17
49835;BME280;35729;52.090;13.162;2023-05-27T11:06:15;102062.94;;;18.45;32.67
49835;BME280;35729;52.090;13.162;2023-05-27T11:08:43;102056.38;;;18.55;32.11
49835;BME280;35729;52.090;13.162;2023-05-27T11:11:12;102055.34;;;18.60;31.86
49835;BME280;35729;52.090;13.162;2023-05-27T11:13:42;102048.88;;;18.67;32.11
49835;BME280;35729;52.090;13.162;2023-05-27T11:16:14;102052.94;;;18.77;31.45
49835;BME280;35729;52.090;13.162;2023-05-27T11:18:45;102040.31;;;18.84;31.43
49835;BME280;35729;52.090;13.162;2023-05-27T11:21:15;102035.81;;;18.86;31.22
49835;BME280;35729;52.090;13.162;2023-05-27T11:23:45;102039.19;;;18.91;30.92
49835;BME280;35729;52.090;13.162;2023-05-27T11:26:15;102026.50;;;18.99;30.83
49835;BME280;35729;52.090;13.162;2023-05-27T11:28:52;102033.00;;;19.16;30.56
49835;BME280;35729;52.090;13.162;2023-05-27T11:31:29;102031.56;;;19.29;29.54
49835;BME280;35729;52.090;13.162;2023-05-27T11:33:57;102025.94;;;19.39;30.75
49835;BME280;35729;52.090;13.162;2023-05-27T11:36:27;102027.16;;;19.52;30.58
49835;BME280;35729;52.090;13.162;2023-05-27T11:38:58;102030.88;;;19.70;30.05
49835;BME280;35729;52.090;13.162;2023-05-27T11:41:28;102026.59;;;19.90;29.54
49835;BME280;35729;52.090;13.162;2023-05-27T11:44:00;102016.81;;;20.12;29.13
49835;BME280;35729;52.090;13.162;2023-05-27T11:46:39;102018.47;;;20.35;27.50
49835;BME280;35729;52.090;13.162;2023-05-27T11:49:08;102015.19;;;20.51;28.41
49835;BME280;35729;52.090;13.162;2023-05-27T11:51:38;102014.41;;;20.68;28.15
49835;BME280;35729;52.090;13.162;2023-05-27T11:54:07;102012.63;;;20.89;27.86
49835;BME280;35729;52.090;13.162;2023-05-27T11:56:35;101996.50;;;21.11;27.52
49835;BME280;35729;52.090;13.162;2023-05-27T11:59:04;101994.63;;;21.32;26.92
49835;BME280;35729;52.090;13.162;2023-05-27T12:01:32;102000.84;;;21.52;26.51
49835;BME280;35729;52.090;13.162;2023-05-27T12:04:03;101994.59;;;21.71;26.10
49835;BME280;35729;52.090;13.162;2023-05-27T12:06:32;101989.38;;;21.87;25.93
49835;BME280;35729;52.090;13.162;2023-05-27T12:09:01;101983.56;;;21.96;26.18
49835;BME280;35729;52.090;13.162;2023-05-27T12:11:30;101979.19;;;22.12;26.20
49835;BME280;35729;52.090;13.162;2023-05-27T12:13:59;101974.63;;;22.32;25.91
49835;BME280;35729;52.090;13.162;2023-05-27T12:16:28;101969.91;;;22.55;26.31
49835;BME280;35729;52.090;13.162;2023-05-27T12:18:57;101974.97;;;22.77;25.79
49835;BME280;35729;52.090;13.162;2023-05-27T12:21:28;101969.91;;;22.88;25.19
49835;BME280;35729;52.090;13.162;2023-05-27T12:23:57;101968.88;;;22.91;25.39
49835;BME280;35729;52.090;13.162;2023-05-27T12:26:39;101960.84;;;22.91;23.55
49835;BME280;35729;52.090;13.162;2023-05-27T12:29:08;101956.28;;;22.93;24.99
49835;BME280;35729;52.090;13.162;2023-05-27T12:31:36;101943.69;;;22.95;24.49
49835;BME280;35729;52.090;13.162;2023-05-27T12:34:05;101944.03;;;23.05;25.06
49835;BME280;35729;52.090;13.162;2023-05-27T12:36:36;101938.81;;;23.19;24.25
49835;BME280;35729;52.090;13.162;2023-05-27T12:39:04;101931.44;;;23.39;24.30
49835;BME280;35729;52.090;13.162;2023-05-27T12:41:33;101934.59;;;23.62;24.12
49835;BME280;35729;52.090;13.162;2023-05-27T12:44:02;101929.03;;;23.81;23.64
49835;BME280;35729;52.090;13.162;2023-05-27T12:46:30;101924.09;;;23.89;22.27
49835;BME280;35729;52.090;13.162;2023-05-27T12:48:58;101922.72;;;23.82;22.53
49835;BME280;35729;52.090;13.162;2023-05-27T12:51:27;101925.25;;;23.69;22.64
49835;BME280;35729;52.090;13.162;2023-05-27T12:53:58;101920.13;;;23.50;22.23
49835;BME280;35729;52.090;13.162;2023-05-27T12:56:27;101910.44;;;23.47;22.62
49835;BME280;35729;52.090;13.162;2023-05-27T12:58:55;101914.13;;;23.61;22.68